sensor_id;sensor_type;location;lat;lon;timestamp;P1;durP1;ratioP1;P2;durP2;ratioP2
21254;SDS011;10785;50.674;17.954;2023-04-15T00:02:20;5.60;;;3.60;;
21254;SDS011;10785;50.674;17.954;2023-04-15T00:04:48;3.72;;;2.78;;
21254;SDS011;10785;50.674;17.954;2023-04-15T00:07:17;3.05;;;2.67;;
21254;SDS011;10785;50.674;17.954;2023-04-15T00:09:46;3.42;;;2.70;;
21254;SDS011;10785;50.674;17.954;2023-04-15T00:12:14;3.50;;;2.88;;
21254;SDS011;10785;50.674;17.954;2023-04-15T00:14:43;3.92;;;3.15;;
21254;SDS011;10785;50.674;17.954;2023-04-15T00:17:13;1.65;;;1.55;;
21254;SDS011;10785;50.674;17.954;2023-04-15T00:19:42;3.65;;;3.35;;
21254;SDS011;10785;50.674;17.954;2023-04-15T00:22:11;3.55;;;2.22;;
21254;SDS011;10785;50.674;17.954;2023-04-15T00:24:40;2.33;;;2.20;;
21254;SDS011;10785;50.674;17.954;2023-04-15T00:27:08;3.17;;;2.38;;
21254;SDS011;10785;50.674;17.954;2023-04-15T00:29:38;2.28;;;2.10;;
21254;SDS011;10785;50.674;17.954;2023-04-15T00:32:06;4.15;;;1.83;;
21254;SDS011;10785;50.674;17.954;2023-04-15T00:34:36;3.78;;;3.58;;
21254;SDS011;10785;50.674;17.954;2023-04-15T00:37:06;2.72;;;1.60;;
21254;SDS011;10785;50.674;17.954;2023-04-15T00:39:35;1.65;;;1.55;;
21254;SDS011;10785;50.674;17.954;2023-04-15T00:42:04;3.95;;;2.97;;
21254;SDS011;10785;50.674;17.954;2023-04-15T00:44:33;6.57;;;5.78;;
21254;SDS011;10785;50.674;17.954;2023-04-15T00:47:01;2.58;;;1.38;;
21254;SDS011;10785;50.674;17.954;2023-04-15T00:49:31;3.80;;;3.50;;
21254;SDS011;10785;50.674;17.954;2023-04-15T00:52:02;2.25;;;2.05;;
21254;SDS011;10785;50.674;17.954;2023-04-15T00:54:30;4.22;;;3.80;;
21254;SDS011;10785;50.674;17.954;2023-04-15T00:56:59;7.32;;;2.50;;
21254;SDS011;10785;50.674;17.954;2023-04-15T00:59:29;7.10;;;2.97;;
21254;SDS011;10785;50.674;17.954;2023-04-15T01:01:58;3.58;;;3.28;;
21254;SDS011;10785;50.674;17.954;2023-04-15T01:04:27;6.55;;;4.72;;
21254;SDS011;10785;50.674;17.954;2023-04-15T01:06:57;6.50;;;4.20;;
21254;SDS011;10785;50.674;17.954;2023-04-15T01:09:28;5.07;;;3.88;;
21254;SDS011;10785;50.674;17.954;2023-04-15T01:11:56;8.55;;;5.07;;
21254;SDS011;10785;50.674;17.954;2023-04-15T01:14:25;7.30;;;6.57;;
21254;SDS011;10785;50.674;17.954;2023-04-15T01:16:54;6.20;;;4.78;;
21254;SDS011;10785;50.674;17.954;2023-04-15T01:19:23;9.02;;;6.22;;
21254;SDS011;10785;50.674;17.954;2023-04-15T01:21:53;4.78;;;4.43;;
21254;SDS011;10785;50.674;17.954;2023-04-15T01:24:22;11.85;;;5.85;;
21254;SDS011;10785;50.674;17.954;2023-04-15T01:26:54;6.32;;;4.82;;
21254;SDS011;10785;50.674;17.954;2023-04-15T01:29:24;4.43;;;4.13;;
21254;SDS011;10785;50.674;17.954;2023-04-15T01:31:53;10.40;;;5.28;;
21254;SDS011;10785;50.674;17.954;2023-04-15T01:34:43;4.60;;;4.30;;
21254;SDS011;10785;50.674;17.954;2023-04-15T01:37:31;4.53;;;4.22;;
21254;SDS011;10785;50.674;17.954;2023-04-15T01:40:00;4.65;;;4.18;;
21254;SDS011;10785;50.674;17.954;2023-04-15T01:42:30;7.55;;;6.57;;
21254;SDS011;10785;50.674;17.954;2023-04-15T01:44:59;6.63;;;5.13;;
21254;SDS011;10785;50.674;17.954;2023-04-15T01:47:28;6.68;;;4.45;;
21254;SDS011;10785;50.674;17.954;2023-04-15T01:49:57;4.68;;;4.22;;
21254;SDS011;10785;50.674;17.954;2023-04-15T01:52:27;7.05;;;5.22;;
21254;SDS011;10785;50.674;17.954;2023-04-15T01:54:56;4.65;;;4.30;;
21254;SDS011;10785;50.674;17.954;2023-04-15T01:57:24;4.55;;;4.22;;
21254;SDS011;10785;50.674;17.954;2023-04-15T01:59:54;10.27;;;3.67;;
21254;SDS011;10785;50.674;17.954;2023-04-15T02:02:23;6.07;;;3.63;;
21254;SDS011;10785;50.674;17.954;2023-04-15T02:08:02;3.30;;;3.03;;
21254;SDS011;10785;50.674;17.954;2023-04-15T02:10:31;2.63;;;2.45;;
21254;SDS011;10785;50.674;17.954;2023-04-15T02:13:00;5.35;;;3.92;;
21254;SDS011;10785;50.674;17.954;2023-04-15T02:15:30;3.28;;;2.97;;
21254;SDS011;10785;50.674;17.954;2023-04-15T02:17:59;2.88;;;2.28;;
21254;SDS011;10785;50.674;17.954;2023-04-15T02:20:27;2.85;;;2.65;;
21254;SDS011;10785;50.674;17.954;2023-04-15T02:22:57;2.00;;;1.90;;
21254;SDS011;10785;50.674;17.954;2023-04-15T02:25:26;6.53;;;4.32;;
21254;SDS011;10785;50.674;17.954;2023-04-15T02:27:56;2.00;;;1.90;;
21254;SDS011;10785;50.674;17.954;2023-04-15T02:30:24;4.43;;;3.90;;
21254;SDS011;10785;50.674;17.954;2023-04-15T02:32:54;3.50;;;2.15;;
21254;SDS011;10785;50.674;17.954;2023-04-15T02:35:24;4.40;;;4.05;;
21254;SDS011;10785;50.674;17.954;2023-04-15T02:37:52;2.08;;;1.98;;
21254;SDS011;10785;50.674;17.954;2023-04-15T02:40:21;2.78;;;2.20;;
21254;SDS011;10785;50.674;17.954;2023-04-15T02:42:50;1.88;;;1.77;;
21254;SDS011;10785;50.674;17.954;2023-04-15T02:45:18;1.98;;;1.88;;
21254;SDS011;10785;50.674;17.954;2023-04-15T02:47:49;2.53;;;2.30;;
21254;SDS011;10785;50.674;17.954;2023-04-15T02:50:20;1.20;;;1.08;;
21254;SDS011;10785;50.674;17.954;2023-04-15T02:52:49;1.25;;;1.25;;
21254;SDS011;10785;50.674;17.954;2023-04-15T02:55:18;1.92;;;1.83;;
21254;SDS011;10785;50.674;17.954;2023-04-15T02:57:48;3.10;;;1.80;;
21254;SDS011;10785;50.674;17.954;2023-04-15T03:04:56;1.48;;;1.38;;
21254;SDS011;10785;50.674;17.954;2023-04-15T03:07:27;2.25;;;2.10;;
21254;SDS011;10785;50.674;17.954;2023-04-15T03:09:56;1.45;;;1.38;;
21254;SDS011;10785;50.674;17.954;2023-04-15T03:12:25;1.50;;;1.40;;
21254;SDS011;10785;50.674;17.954;2023-04-15T03:14:55;1.08;;;1.08;;
21254;SDS011;10785;50.674;17.954;2023-04-15T03:17:32;1.70;;;1.35;;
21254;SDS011;10785;50.674;17.954;2023-04-15T03:20:01;1.58;;;1.48;;
21254;SDS011;10785;50.674;17.954;2023-04-15T03:22:32;1.85;;;1.75;;
21254;SDS011;10785;50.674;17.954;2023-04-15T03:25:02;1.00;;;1.00;;
21254;SDS011;10785;50.674;17.954;2023-04-15T03:27:32;1.42;;;1.33;;
21254;SDS011;10785;50.674;17.954;2023-04-15T03:30:02;1.33;;;1.33;;
21254;SDS011;10785;50.674;17.954;2023-04-15T03:32:35;2.53;;;2.35;;
21254;SDS011;10785;50.674;17.954;2023-04-15T03:35:05;1.73;;;1.63;;
21254;SDS011;10785;50.674;17.954;2023-04-15T03:37:36;2.10;;;2.00;;
21254;SDS011;10785;50.674;17.954;2023-04-15T03:40:05;1.00;;;1.00;;
21254;SDS011;10785;50.674;17.954;2023-04-15T03:42:35;2.03;;;1.90;;
21254;SDS011;10785;50.674;17.954;2023-04-15T03:45:04;0.85;;;0.85;;
21254;SDS011;10785;50.674;17.954;2023-04-15T03:47:33;1.55;;;1.00;;
21254;SDS011;10785;50.674;17.954;2023-04-15T03:50:02;1.10;;;1.10;;
21254;SDS011;10785;50.674;17.954;2023-04-15T03:52:31;1.95;;;1.85;;
21254;SDS011;10785;50.674;17.954;2023-04-15T03:55:01;1.80;;;1.70;;
21254;SDS011;10785;50.674;17.954;2023-04-15T03:57:29;3.67;;;1.10;;
21254;SDS011;10785;50.674;17.954;2023-04-15T03:59:58;3.58;;;1.88;;
21254;SDS011;10785;50.674;17.954;2023-04-15T04:02:26;1.05;;;1.05;;
21254;SDS011;10785;50.674;17.954;2023-04-15T04:04:55;1.60;;;1.55;;
21254;SDS011;10785;50.674;17.954;2023-04-15T04:07:23;1.42;;;1.33;;
21254;SDS011;10785;50.674;17.954;2023-04-15T04:09:52;0.80;;;0.80;;
21254;SDS011;10785;50.674;17.954;2023-04-15T04:12:21;0.98;;;0.88;;
21254;SDS011;10785;50.674;17.954;2023-04-15T04:14:50;1.33;;;1.23;;
21254;SDS011;10785;50.674;17.954;2023-04-15T04:17:19;1.23;;;1.23;;
21254;SDS011;10785;50.674;17.954;2023-04-15T04:19:47;1.00;;;1.00;;
21254;SDS011;10785;50.674;17.954;2023-04-15T04:22:15;1.73;;;1.60;;
21254;SDS011;10785;50.674;17.954;2023-04-15T04:24:44;1.15;;;1.15;;
21254;SDS011;10785;50.674;17.954;2023-04-15T04:27:12;1.42;;;1.42;;
21254;SDS011;10785;50.674;17.954;2023-04-15T04:29:42;5.60;;;2.33;;
21254;SDS011;10785;50.674;17.954;2023-04-15T04:32:13;5.10;;;2.17;;
21254;SDS011;10785;50.674;17.954;2023-04-15T04:34:42;1.90;;;1.33;;
21254;SDS011;10785;50.674;17.954;2023-04-15T04:37:10;45.13;;;2.05;;
21254;SDS011;10785;50.674;17.954;2023-04-15T04:39:39;1.33;;;0.98;;
21254;SDS011;10785;50.674;17.954;2023-04-15T04:42:07;3.13;;;1.15;;
21254;SDS011;10785;50.674;17.954;2023-04-15T04:44:36;2.55;;;1.30;;
21254;SDS011;10785;50.674;17.954;2023-04-15T04:47:06;2.13;;;2.03;;
21254;SDS011;10785;50.674;17.954;2023-04-15T04:49:34;1.58;;;1.48;;
21254;SDS011;10785;50.674;17.954;2023-04-15T04:52:03;0.77;;;0.77;;
21254;SDS011;10785;50.674;17.954;2023-04-15T04:54:32;1.58;;;1.48;;
21254;SDS011;10785;50.674;17.954;2023-04-15T04:57:00;1.13;;;1.13;;
21254;SDS011;10785;50.674;17.954;2023-04-15T04:59:29;0.82;;;0.82;;
21254;SDS011;10785;50.674;17.954;2023-04-15T05:01:57;2.72;;;2.35;;
21254;SDS011;10785;50.674;17.954;2023-04-15T05:04:27;1.70;;;1.60;;
21254;SDS011;10785;50.674;17.954;2023-04-15T05:06:57;0.98;;;0.98;;
21254;SDS011;10785;50.674;17.954;2023-04-15T05:09:26;1.98;;;1.42;;
21254;SDS011;10785;50.674;17.954;2023-04-15T05:11:57;1.30;;;1.20;;
21254;SDS011;10785;50.674;17.954;2023-04-15T05:14:27;3.53;;;1.60;;
21254;SDS011;10785;50.674;17.954;2023-04-15T05:16:55;1.25;;;1.15;;
21254;SDS011;10785;50.674;17.954;2023-04-15T05:19:24;2.47;;;1.77;;
21254;SDS011;10785;50.674;17.954;2023-04-15T05:21:53;0.40;;;0.40;;
21254;SDS011;10785;50.674;17.954;2023-04-15T05:24:22;0.85;;;0.80;;
21254;SDS011;10785;50.674;17.954;2023-04-15T05:26:51;2.63;;;2.00;;
21254;SDS011;10785;50.674;17.954;2023-04-15T05:29:19;10.00;;;2.33;;
21254;SDS011;10785;50.674;17.954;2023-04-15T05:31:48;0.73;;;0.73;;
21254;SDS011;10785;50.674;17.954;2023-04-15T05:34:16;1.63;;;1.50;;
21254;SDS011;10785;50.674;17.954;2023-04-15T05:36:45;1.48;;;0.70;;
21254;SDS011;10785;50.674;17.954;2023-04-15T05:39:15;0.60;;;0.60;;
21254;SDS011;10785;50.674;17.954;2023-04-15T05:41:43;0.88;;;0.88;;
21254;SDS011;10785;50.674;17.954;2023-04-15T05:44:12;0.45;;;0.45;;
21254;SDS011;10785;50.674;17.954;2023-04-15T05:46:41;0.60;;;0.60;;
21254;SDS011;10785;50.674;17.954;2023-04-15T05:49:09;1.45;;;0.73;;
21254;SDS011;10785;50.674;17.954;2023-04-15T05:51:38;2.05;;;1.23;;
21254;SDS011;10785;50.674;17.954;2023-04-15T05:54:07;1.08;;;1.08;;
21254;SDS011;10785;50.674;17.954;2023-04-15T05:56:36;1.55;;;1.45;;
21254;SDS011;10785;50.674;17.954;2023-04-15T05:59:05;1.42;;;1.33;;
21254;SDS011;10785;50.674;17.954;2023-04-15T06:01:34;1.17;;;0.95;;
21254;SDS011;10785;50.674;17.954;2023-04-15T06:04:03;0.40;;;0.40;;
21254;SDS011;10785;50.674;17.954;2023-04-15T06:06:31;0.75;;;0.73;;
21254;SDS011;10785;50.674;17.954;2023-04-15T06:09:00;1.40;;;1.30;;
21254;SDS011;10785;50.674;17.954;2023-04-15T06:11:29;2.25;;;2.05;;
21254;SDS011;10785;50.674;17.954;2023-04-15T06:13:59;1.63;;;1.08;;
21254;SDS011;10785;50.674;17.954;2023-04-15T06:16:27;0.93;;;0.93;;
21254;SDS011;10785;50.674;17.954;2023-04-15T06:18:56;0.55;;;0.52;;
21254;SDS011;10785;50.674;17.954;2023-04-15T06:21:26;2.78;;;1.17;;
21254;SDS011;10785;50.674;17.954;2023-04-15T06:23:54;0.60;;;0.60;;
21254;SDS011;10785;50.674;17.954;2023-04-15T06:26:23;1.75;;;1.02;;
21254;SDS011;10785;50.674;17.954;2023-04-15T06:28:52;0.90;;;0.90;;
21254;SDS011;10785;50.674;17.954;2023-04-15T06:31:22;1.42;;;1.05;;
21254;SDS011;10785;50.674;17.954;2023-04-15T06:33:51;2.55;;;0.82;;
21254;SDS011;10785;50.674;17.954;2023-04-15T06:36:19;1.17;;;1.08;;
21254;SDS011;10785;50.674;17.954;2023-04-15T06:38:48;1.42;;;1.25;;
21254;SDS011;10785;50.674;17.954;2023-04-15T06:41:16;1.35;;;1.25;;
21254;SDS011;10785;50.674;17.954;2023-04-15T06:43:45;1.35;;;1.25;;
21254;SDS011;10785;50.674;17.954;2023-04-15T06:46:13;1.02;;;1.00;;
21254;SDS011;10785;50.674;17.954;2023-04-15T06:48:43;1.25;;;0.80;;
21254;SDS011;10785;50.674;17.954;2023-04-15T06:51:13;2.05;;;1.23;;
21254;SDS011;10785;50.674;17.954;2023-04-15T06:53:41;0.50;;;0.50;;
21254;SDS011;10785;50.674;17.954;2023-04-15T06:56:10;1.33;;;1.23;;
21254;SDS011;10785;50.674;17.954;2023-04-15T06:58:38;0.70;;;0.70;;
21254;SDS011;10785;50.674;17.954;2023-04-15T07:01:07;0.70;;;0.70;;
21254;SDS011;10785;50.674;17.954;2023-04-15T07:03:35;1.58;;;1.30;;
21254;SDS011;10785;50.674;17.954;2023-04-15T07:06:05;1.00;;;0.75;;
21254;SDS011;10785;50.674;17.954;2023-04-15T07:08:35;0.65;;;0.65;;
21254;SDS011;10785;50.674;17.954;2023-04-15T07:11:03;0.70;;;0.70;;
21254;SDS011;10785;50.674;17.954;2023-04-15T07:13:32;0.90;;;0.90;;
21254;SDS011;10785;50.674;17.954;2023-04-15T07:16:00;1.90;;;1.05;;
21254;SDS011;10785;50.674;17.954;2023-04-15T07:18:29;1.08;;;0.98;;
21254;SDS011;10785;50.674;17.954;2023-04-15T07:20:57;1.63;;;0.63;;
21254;SDS011;10785;50.674;17.954;2023-04-15T07:23:27;0.60;;;0.60;;
21254;SDS011;10785;50.674;17.954;2023-04-15T07:25:56;0.82;;;0.80;;
21254;SDS011;10785;50.674;17.954;2023-04-15T07:28:26;0.68;;;0.68;;
21254;SDS011;10785;50.674;17.954;2023-04-15T07:30:58;0.82;;;0.77;;
21254;SDS011;10785;50.674;17.954;2023-04-15T07:33:27;1.13;;;0.98;;
21254;SDS011;10785;50.674;17.954;2023-04-15T07:35:55;0.45;;;0.45;;
21254;SDS011;10785;50.674;17.954;2023-04-15T07:38:24;0.63;;;0.63;;
21254;SDS011;10785;50.674;17.954;2023-04-15T07:40:55;0.60;;;0.60;;
21254;SDS011;10785;50.674;17.954;2023-04-15T07:43:23;0.55;;;0.45;;
21254;SDS011;10785;50.674;17.954;2023-04-15T07:45:52;1.33;;;0.90;;
21254;SDS011;10785;50.674;17.954;2023-04-15T07:48:21;0.70;;;0.70;;
21254;SDS011;10785;50.674;17.954;2023-04-15T07:50:49;2.03;;;0.60;;
21254;SDS011;10785;50.674;17.954;2023-04-15T07:53:18;0.40;;;0.40;;
21254;SDS011;10785;50.674;17.954;2023-04-15T07:55:47;0.40;;;0.40;;
21254;SDS011;10785;50.674;17.954;2023-04-15T07:58:17;0.65;;;0.65;;
21254;SDS011;10785;50.674;17.954;2023-04-15T08:00:45;0.40;;;0.40;;
21254;SDS011;10785;50.674;17.954;2023-04-15T08:03:14;0.30;;;0.30;;
21254;SDS011;10785;50.674;17.954;2023-04-15T08:05:43;1.65;;;1.30;;
21254;SDS011;10785;50.674;17.954;2023-04-15T08:08:12;0.65;;;0.55;;
21254;SDS011;10785;50.674;17.954;2023-04-15T08:10:41;0.90;;;0.90;;
21254;SDS011;10785;50.674;17.954;2023-04-15T08:13:10;0.60;;;0.60;;
21254;SDS011;10785;50.674;17.954;2023-04-15T08:15:40;0.35;;;0.35;;
21254;SDS011;10785;50.674;17.954;2023-04-15T08:18:09;0.73;;;0.73;;
21254;SDS011;10785;50.674;17.954;2023-04-15T08:20:37;0.65;;;0.63;;
21254;SDS011;10785;50.674;17.954;2023-04-15T08:23:06;0.40;;;0.40;;
21254;SDS011;10785;50.674;17.954;2023-04-15T08:25:34;1.38;;;1.17;;
21254;SDS011;10785;50.674;17.954;2023-04-15T08:28:03;0.30;;;0.30;;
21254;SDS011;10785;50.674;17.954;2023-04-15T08:30:33;0.43;;;0.43;;
21254;SDS011;10785;50.674;17.954;2023-04-15T08:33:03;0.35;;;0.35;;
21254;SDS011;10785;50.674;17.954;2023-04-15T08:35:31;0.85;;;0.85;;
21254;SDS011;10785;50.674;17.954;2023-04-15T08:38:00;0.50;;;0.50;;
21254;SDS011;10785;50.674;17.954;2023-04-15T08:40:29;1.30;;;1.00;;
21254;SDS011;10785;50.674;17.954;2023-04-15T08:43:08;0.63;;;0.63;;
21254;SDS011;10785;50.674;17.954;2023-04-15T08:45:38;0.35;;;0.35;;
21254;SDS011;10785;50.674;17.954;2023-04-15T08:48:08;1.25;;;0.80;;
21254;SDS011;10785;50.674;17.954;2023-04-15T08:50:42;1.08;;;1.08;;
21254;SDS011;10785;50.674;17.954;2023-04-15T08:53:11;0.75;;;0.75;;
21254;SDS011;10785;50.674;17.954;2023-04-15T08:55:41;0.52;;;0.52;;
21254;SDS011;10785;50.674;17.954;2023-04-15T08:58:11;0.50;;;0.50;;
21254;SDS011;10785;50.674;17.954;2023-04-15T09:00:41;1.73;;;0.70;;
21254;SDS011;10785;50.674;17.954;2023-04-15T09:03:11;0.60;;;0.60;;
21254;SDS011;10785;50.674;17.954;2023-04-15T09:05:40;0.50;;;0.50;;
21254;SDS011;10785;50.674;17.954;2023-04-15T09:08:09;0.43;;;0.43;;
21254;SDS011;10785;50.674;17.954;2023-04-15T09:10:37;1.27;;;1.05;;
21254;SDS011;10785;50.674;17.954;2023-04-15T09:13:06;1.15;;;1.05;;
21254;SDS011;10785;50.674;17.954;2023-04-15T09:15:35;0.47;;;0.47;;
21254;SDS011;10785;50.674;17.954;2023-04-15T09:18:05;0.30;;;0.30;;
21254;SDS011;10785;50.674;17.954;2023-04-15T09:20:39;0.30;;;0.30;;
21254;SDS011;10785;50.674;17.954;2023-04-15T09:23:11;0.82;;;0.82;;
21254;SDS011;10785;50.674;17.954;2023-04-15T09:25:40;0.65;;;0.45;;
21254;SDS011;10785;50.674;17.954;2023-04-15T09:28:09;0.25;;;0.25;;
21254;SDS011;10785;50.674;17.954;2023-04-15T09:30:38;0.80;;;0.80;;
21254;SDS011;10785;50.674;17.954;2023-04-15T09:33:13;0.38;;;0.38;;
21254;SDS011;10785;50.674;17.954;2023-04-15T09:35:45;0.30;;;0.30;;
21254;SDS011;10785;50.674;17.954;2023-04-15T09:38:23;0.30;;;0.30;;
21254;SDS011;10785;50.674;17.954;2023-04-15T09:40:52;0.20;;;0.20;;
21254;SDS011;10785;50.674;17.954;2023-04-15T10:19:10;0.70;;;0.57;;
21254;SDS011;10785;50.674;17.954;2023-04-15T10:21:39;0.73;;;0.73;;
21254;SDS011;10785;50.674;17.954;2023-04-15T10:24:08;1.23;;;0.95;;
21254;SDS011;10785;50.674;17.954;2023-04-15T10:26:37;0.50;;;0.45;;
21254;SDS011;10785;50.674;17.954;2023-04-15T10:29:05;12.07;;;0.95;;
21254;SDS011;10785;50.674;17.954;2023-04-15T10:31:36;0.52;;;0.52;;
21254;SDS011;10785;50.674;17.954;2023-04-15T10:34:05;1.70;;;0.60;;
21254;SDS011;10785;50.674;17.954;2023-04-15T10:36:35;2.55;;;0.88;;
21254;SDS011;10785;50.674;17.954;2023-04-15T10:39:08;0.60;;;0.60;;
21254;SDS011;10785;50.674;17.954;2023-04-15T10:42:07;0.50;;;0.50;;
21254;SDS011;10785;50.674;17.954;2023-04-15T10:44:37;0.75;;;0.75;;
21254;SDS011;10785;50.674;17.954;2023-04-15T10:47:09;0.60;;;0.60;;
21254;SDS011;10785;50.674;17.954;2023-04-15T10:49:42;3.75;;;0.88;;
21254;SDS011;10785;50.674;17.954;2023-04-15T10:52:14;1.30;;;0.82;;
21254;SDS011;10785;50.674;17.954;2023-04-15T10:54:44;1.10;;;0.38;;
21254;SDS011;10785;50.674;17.954;2023-04-15T10:57:14;0.50;;;0.50;;
21254;SDS011;10785;50.674;17.954;2023-04-15T11:02:37;0.80;;;0.80;;
21254;SDS011;10785;50.674;17.954;2023-04-15T11:05:14;1.17;;;0.88;;
21254;SDS011;10785;50.674;17.954;2023-04-15T11:07:48;2.40;;;0.95;;
21254;SDS011;10785;50.674;17.954;2023-04-15T11:13:24;0.90;;;0.50;;
21254;SDS011;10785;50.674;17.954;2023-04-15T11:15:57;2.72;;;0.63;;
21254;SDS011;10785;50.674;17.954;2023-04-15T11:18:29;0.40;;;0.40;;
21254;SDS011;10785;50.674;17.954;2023-04-15T11:21:02;0.40;;;0.40;;
21254;SDS011;10785;50.674;17.954;2023-04-15T11:23:34;0.32;;;0.32;;
21254;SDS011;10785;50.674;17.954;2023-04-15T11:26:05;3.33;;;1.30;;
21254;SDS011;10785;50.674;17.954;2023-04-15T11:28:38;0.50;;;0.50;;
21254;SDS011;10785;50.674;17.954;2023-04-15T11:31:09;3.95;;;0.63;;
21254;SDS011;10785;50.674;17.954;2023-04-15T11:33:43;1.30;;;0.90;;
21254;SDS011;10785;50.674;17.954;2023-04-15T11:36:13;0.65;;;0.63;;
21254;SDS011;10785;50.674;17.954;2023-04-15T11:38:44;0.90;;;0.85;;
21254;SDS011;10785;50.674;17.954;2023-04-15T11:41:14;0.73;;;0.52;;
21254;SDS011;10785;50.674;17.954;2023-04-15T11:43:46;0.65;;;0.65;;
21254;SDS011;10785;50.674;17.954;2023-04-15T11:46:15;1.05;;;0.80;;
21254;SDS011;10785;50.674;17.954;2023-04-15T11:48:44;0.93;;;0.35;;
21254;SDS011;10785;50.674;17.954;2023-04-15T11:51:14;0.75;;;0.75;;
21254;SDS011;10785;50.674;17.954;2023-04-15T11:53:44;0.90;;;0.90;;
21254;SDS011;10785;50.674;17.954;2023-04-15T11:56:21;0.80;;;0.60;;
21254;SDS011;10785;50.674;17.954;2023-04-15T11:58:54;0.20;;;0.20;;
21254;SDS011;10785;50.674;17.954;2023-04-15T12:01:31;0.63;;;0.63;;
21254;SDS011;10785;50.674;17.954;2023-04-15T12:04:01;0.32;;;0.32;;
21254;SDS011;10785;50.674;17.954;2023-04-15T12:06:38;0.55;;;0.55;;
21254;SDS011;10785;50.674;17.954;2023-04-15T12:09:09;0.45;;;0.43;;
21254;SDS011;10785;50.674;17.954;2023-04-15T12:11:43;0.30;;;0.30;;
21254;SDS011;10785;50.674;17.954;2023-04-15T12:14:19;1.27;;;1.05;;
21254;SDS011;10785;50.674;17.954;2023-04-15T12:16:50;0.47;;;0.47;;
21254;SDS011;10785;50.674;17.954;2023-04-15T12:19:25;0.35;;;0.32;;
21254;SDS011;10785;50.674;17.954;2023-04-15T12:21:56;0.93;;;0.80;;
21254;SDS011;10785;50.674;17.954;2023-04-15T12:24:29;0.35;;;0.32;;
21254;SDS011;10785;50.674;17.954;2023-04-15T12:27:02;6.45;;;1.33;;
21254;SDS011;10785;50.674;17.954;2023-04-15T12:29:32;1.10;;;0.68;;
21254;SDS011;10785;50.674;17.954;2023-04-15T12:32:06;0.75;;;0.75;;
21254;SDS011;10785;50.674;17.954;2023-04-15T12:34:37;0.68;;;0.52;;
21254;SDS011;10785;50.674;17.954;2023-04-15T12:37:11;0.60;;;0.60;;
21254;SDS011;10785;50.674;17.954;2023-04-15T12:39:42;1.27;;;1.02;;
21254;SDS011;10785;50.674;17.954;2023-04-15T12:42:13;1.48;;;0.75;;
21254;SDS011;10785;50.674;17.954;2023-04-15T12:44:42;0.82;;;0.70;;
21254;SDS011;10785;50.674;17.954;2023-04-15T12:47:11;0.77;;;0.40;;
21254;SDS011;10785;50.674;17.954;2023-04-15T12:49:40;0.35;;;0.35;;
21254;SDS011;10785;50.674;17.954;2023-04-15T12:52:09;0.95;;;0.95;;
21254;SDS011;10785;50.674;17.954;2023-04-15T12:54:38;0.20;;;0.20;;
21254;SDS011;10785;50.674;17.954;2023-04-15T12:57:08;0.35;;;0.35;;
21254;SDS011;10785;50.674;17.954;2023-04-15T12:59:36;0.40;;;0.40;;
21254;SDS011;10785;50.674;17.954;2023-04-15T13:02:05;0.50;;;0.50;;
21254;SDS011;10785;50.674;17.954;2023-04-15T13:04:34;0.40;;;0.40;;
21254;SDS011;10785;50.674;17.954;2023-04-15T13:07:03;0.43;;;0.40;;
21254;SDS011;10785;50.674;17.954;2023-04-15T13:09:32;0.95;;;0.40;;
21254;SDS011;10785;50.674;17.954;2023-04-15T13:12:00;1.25;;;0.80;;
21254;SDS011;10785;50.674;17.954;2023-04-15T13:14:32;0.50;;;0.40;;
21254;SDS011;10785;50.674;17.954;2023-04-15T13:17:01;0.30;;;0.30;;
21254;SDS011;10785;50.674;17.954;2023-04-15T13:19:34;0.47;;;0.45;;
21254;SDS011;10785;50.674;17.954;2023-04-15T13:22:03;0.65;;;0.60;;
21254;SDS011;10785;50.674;17.954;2023-04-15T13:24:32;1.10;;;1.00;;
21254;SDS011;10785;50.674;17.954;2023-04-15T13:27:01;0.70;;;0.70;;
21254;SDS011;10785;50.674;17.954;2023-04-15T13:29:31;0.93;;;0.93;;
21254;SDS011;10785;50.674;17.954;2023-04-15T13:32:00;0.63;;;0.63;;
21254;SDS011;10785;50.674;17.954;2023-04-15T13:34:29;0.85;;;0.80;;
21254;SDS011;10785;50.674;17.954;2023-04-15T13:36:57;0.93;;;0.55;;
21254;SDS011;10785;50.674;17.954;2023-04-15T13:39:26;4.15;;;0.93;;
21254;SDS011;10785;50.674;17.954;2023-04-15T13:41:55;0.63;;;0.63;;
21254;SDS011;10785;50.674;17.954;2023-04-15T13:44:23;1.80;;;1.35;;
21254;SDS011;10785;50.674;17.954;2023-04-15T13:46:53;1.05;;;0.63;;
21254;SDS011;10785;50.674;17.954;2023-04-15T13:49:22;0.50;;;0.50;;
21254;SDS011;10785;50.674;17.954;2023-04-15T13:51:51;0.73;;;0.70;;
21254;SDS011;10785;50.674;17.954;2023-04-15T13:54:19;1.17;;;0.55;;
21254;SDS011;10785;50.674;17.954;2023-04-15T13:56:48;0.80;;;0.80;;
21254;SDS011;10785;50.674;17.954;2023-04-15T14:41:06;0.32;;;0.32;;
21254;SDS011;10785;50.674;17.954;2023-04-15T14:43:37;1.30;;;1.20;;
21254;SDS011;10785;50.674;17.954;2023-04-15T14:46:05;0.55;;;0.43;;
21254;SDS011;10785;50.674;17.954;2023-04-15T14:48:35;0.40;;;0.40;;
21254;SDS011;10785;50.674;17.954;2023-04-15T14:51:04;1.85;;;0.65;;
21254;SDS011;10785;50.674;17.954;2023-04-15T14:53:33;0.50;;;0.43;;
21254;SDS011;10785;50.674;17.954;2023-04-15T14:56:01;0.68;;;0.68;;
21254;SDS011;10785;50.674;17.954;2023-04-15T14:58:32;1.02;;;0.93;;
21254;SDS011;10785;50.674;17.954;2023-04-15T15:01:00;1.05;;;0.77;;
21254;SDS011;10785;50.674;17.954;2023-04-15T15:03:30;1.45;;;0.93;;
21254;SDS011;10785;50.674;17.954;2023-04-15T15:05:58;1.48;;;0.63;;
21254;SDS011;10785;50.674;17.954;2023-04-15T15:08:27;0.50;;;0.43;;
21254;SDS011;10785;50.674;17.954;2023-04-15T15:10:56;0.30;;;0.30;;
21254;SDS011;10785;50.674;17.954;2023-04-15T15:13:24;0.28;;;0.28;;
21254;SDS011;10785;50.674;17.954;2023-04-15T15:15:54;0.70;;;0.70;;
21254;SDS011;10785;50.674;17.954;2023-04-15T15:18:24;0.47;;;0.47;;
21254;SDS011;10785;50.674;17.954;2023-04-15T15:20:53;0.60;;;0.60;;
21254;SDS011;10785;50.674;17.954;2023-04-15T15:23:21;1.27;;;0.70;;
21254;SDS011;10785;50.674;17.954;2023-04-15T15:25:50;0.30;;;0.30;;
21254;SDS011;10785;50.674;17.954;2023-04-15T15:28:19;2.28;;;1.05;;
21254;SDS011;10785;50.674;17.954;2023-04-15T15:30:48;1.40;;;1.30;;
21254;SDS011;10785;50.674;17.954;2023-04-15T15:33:18;0.77;;;0.77;;
21254;SDS011;10785;50.674;17.954;2023-04-15T15:35:46;0.82;;;0.55;;
21254;SDS011;10785;50.674;17.954;2023-04-15T15:38:15;2.05;;;1.27;;
21254;SDS011;10785;50.674;17.954;2023-04-15T15:40:43;1.55;;;1.08;;
21254;SDS011;10785;50.674;17.954;2023-04-15T15:43:12;8.20;;;1.35;;
21254;SDS011;10785;50.674;17.954;2023-04-15T15:45:41;0.73;;;0.73;;
21254;SDS011;10785;50.674;17.954;2023-04-15T15:48:09;6.22;;;0.88;;
21254;SDS011;10785;50.674;17.954;2023-04-15T15:50:39;1.35;;;1.25;;
21254;SDS011;10785;50.674;17.954;2023-04-15T15:53:08;1.83;;;1.05;;
21254;SDS011;10785;50.674;17.954;2023-04-15T15:55:38;0.50;;;0.50;;
21254;SDS011;10785;50.674;17.954;2023-04-15T15:58:06;1.65;;;1.20;;
21254;SDS011;10785;50.674;17.954;2023-04-15T16:00:35;3.67;;;1.42;;
21254;SDS011;10785;50.674;17.954;2023-04-15T16:03:03;2.10;;;1.58;;
21254;SDS011;10785;50.674;17.954;2023-04-15T16:05:33;1.58;;;1.25;;
21254;SDS011;10785;50.674;17.954;2023-04-15T16:08:04;0.85;;;0.85;;
21254;SDS011;10785;50.674;17.954;2023-04-15T16:10:33;1.00;;;0.98;;
21254;SDS011;10785;50.674;17.954;2023-04-15T16:13:01;0.57;;;0.57;;
21254;SDS011;10785;50.674;17.954;2023-04-15T16:15:30;3.20;;;1.20;;
21254;SDS011;10785;50.674;17.954;2023-04-15T16:17:58;0.77;;;0.77;;
21254;SDS011;10785;50.674;17.954;2023-04-15T16:20:27;1.27;;;1.20;;